createdAt,value
2022-09-07T00:01:46.536Z,54.96
2022-09-07T00:04:49.615Z,54.99
2022-09-07T00:11:00.924Z,55.07
2022-09-07T00:13:52.112Z,55.12
2022-09-07T00:16:58.999Z,55.06
2022-09-07T00:20:11.872Z,55.21
2022-09-07T00:23:32.163Z,55.08
2022-09-07T00:29:43.292Z,55.23
2022-09-07T00:32:35.899Z,55.25
2022-09-07T00:35:36.838Z,55.64
2022-09-07T00:38:34.245Z,55.30
2022-09-07T00:42:01.672Z,55.59
2022-09-07T00:45:38.247Z,55.47
2022-09-07T00:48:47.781Z,55.43
2022-09-07T00:51:55.729Z,55.73
2022-09-07T00:55:16.560Z,55.87
2022-09-07T00:58:22.209Z,55.68
2022-09-07T01:01:13.933Z,55.93
2022-09-07T01:04:09.636Z,55.73
2022-09-07T01:07:12.256Z,56.12
2022-09-07T01:10:20.789Z,55.98
2022-09-07T01:13:15.060Z,56.14
2022-09-07T01:16:31.749Z,56.13
2022-09-07T01:19:36.463Z,56.29
2022-09-07T01:22:54.306Z,56.11
2022-09-07T01:25:59.851Z,56.32
2022-09-07T01:28:51.359Z,56.31
2022-09-07T01:38:35.061Z,56.44
2022-09-07T01:41:41.156Z,56.73
2022-09-07T01:44:28.182Z,56.74
2022-09-07T01:47:32.584Z,56.89
2022-09-07T01:50:41.412Z,56.94
2022-09-07T01:53:44.802Z,56.94
2022-09-07T01:56:45.911Z,56.69
2022-09-07T01:59:42.808Z,57.16
2022-09-07T02:02:37.073Z,56.69
2022-09-07T02:05:28.767Z,56.99
2022-09-07T02:08:34.636Z,56.63
2022-09-07T02:11:33.231Z,56.88
2022-09-07T02:14:24.657Z,57.20
2022-09-07T02:17:31.458Z,56.85
2022-09-07T02:20:30.246Z,57.30
2022-09-07T02:23:27.059Z,57.22
2022-09-07T02:26:25.279Z,57.44
2022-09-07T02:29:34.638Z,57.50
2022-09-07T02:32:25.915Z,57.21
2022-09-07T02:35:13.269Z,57.61
2022-09-07T02:41:29.982Z,57.81
2022-09-07T02:44:21.497Z,57.47
2022-09-07T02:47:25.095Z,57.93
2022-09-07T02:50:28.467Z,58.05
2022-09-07T02:53:27.627Z,57.54
2022-09-07T02:56:26.689Z,57.68
2022-09-07T02:59:19.863Z,57.68
2022-09-07T03:02:15.877Z,57.71
2022-09-07T03:05:18.660Z,57.69
2022-09-07T03:08:13.625Z,57.66
2022-09-07T03:11:00.751Z,57.87
2022-09-07T03:13:47.591Z,58.14
2022-09-07T03:16:36.371Z,57.84
2022-09-07T03:19:23.176Z,58.00
2022-09-07T03:22:09.943Z,58.50
2022-09-07T03:24:56.684Z,57.97
2022-09-07T03:27:43.588Z,58.27
2022-09-07T03:30:30.684Z,58.47
2022-09-07T03:33:17.670Z,58.32
2022-09-07T03:36:04.644Z,58.60
2022-09-07T03:38:53.492Z,58.41
2022-09-07T03:41:42.151Z,58.73
2022-09-07T03:44:29.205Z,58.31
2022-09-07T03:47:16.431Z,58.58
2022-09-07T03:50:03.435Z,58.32
2022-09-07T03:52:50.248Z,58.30
2022-09-07T03:55:36.928Z,58.63
2022-09-07T03:58:23.663Z,59.25
2022-09-07T04:01:11.812Z,58.98
2022-09-07T04:04:02.196Z,59.22
2022-09-07T04:06:53.209Z,58.76
2022-09-07T04:09:41.189Z,59.14
2022-09-07T04:12:27.958Z,58.88
2022-09-07T04:15:14.957Z,59.34
2022-09-07T04:18:04.226Z,59.13
2022-09-07T04:20:52.634Z,58.87
2022-09-07T04:23:42.656Z,59.26
2022-09-07T04:26:33.474Z,59.73
2022-09-07T04:29:20.328Z,59.41
2022-09-07T04:32:07.054Z,59.81
2022-09-07T04:34:54.468Z,59.87
2022-09-07T04:37:41.174Z,59.83
2022-09-07T04:40:27.872Z,59.52
2022-09-07T04:43:14.613Z,59.96
2022-09-07T04:46:04.443Z,60.15
2022-09-07T04:48:52.051Z,59.77
2022-09-07T04:51:39.075Z,60.04
2022-09-07T04:54:26.580Z,60.13
2022-09-07T04:57:13.273Z,60.06
2022-09-07T05:00:00.266Z,60.16
2022-09-07T05:02:46.990Z,60.36
2022-09-07T05:05:38.159Z,59.87
2022-09-07T05:08:24.901Z,60.44
2022-09-07T05:11:12.196Z,60.36
2022-09-07T05:13:59.330Z,60.05
2022-09-07T05:16:46.077Z,60.04
2022-09-07T05:19:32.884Z,59.89
2022-09-07T05:22:19.649Z,60.08
2022-09-07T05:25:07.096Z,60.19
2022-09-07T05:27:53.932Z,60.74
2022-09-07T05:36:55.519Z,60.15
2022-09-07T05:39:44.665Z,60.65
2022-09-07T05:42:31.664Z,60.30
2022-09-07T05:45:18.432Z,61.00
2022-09-07T05:48:05.124Z,60.64
2022-09-07T05:50:52.362Z,60.62
2022-09-07T05:53:40.216Z,60.38
2022-09-07T05:56:26.921Z,60.59
2022-09-07T05:59:13.642Z,60.20
2022-09-07T06:02:00.421Z,60.23
2022-09-07T06:04:47.659Z,60.36
2022-09-07T06:07:34.321Z,60.33
2022-09-07T06:13:27.701Z,60.35
2022-09-07T06:16:14.652Z,61.14
2022-09-07T06:19:04.582Z,60.98
2022-09-07T06:21:51.426Z,61.40
2022-09-07T06:24:38.192Z,61.56
2022-09-07T06:27:24.864Z,61.84
2022-09-07T06:30:12.291Z,61.80
2022-09-07T06:32:59.107Z,62.02
2022-09-07T06:35:54.361Z,62.25
2022-09-07T06:38:43.268Z,62.19
2022-09-07T06:44:37.116Z,62.62
2022-09-07T06:47:23.818Z,62.49
2022-09-07T06:50:10.557Z,62.71
2022-09-07T06:56:08.061Z,63.17
2022-09-07T06:58:55.139Z,63.37
2022-09-07T07:01:42.955Z,63.33
2022-09-07T07:04:29.675Z,63.65
2022-09-07T07:07:16.484Z,63.74
2022-09-07T07:10:03.356Z,63.58
2022-09-07T07:12:50.101Z,63.97
2022-09-07T07:15:44.291Z,64.02
2022-09-07T07:18:34.072Z,64.55
2022-09-07T07:21:23.397Z,64.50
2022-09-07T07:24:10.186Z,64.86
2022-09-07T07:26:56.905Z,64.50
2022-09-07T07:29:43.664Z,65.12
2022-09-07T07:32:32.882Z,65.01
2022-09-07T07:35:19.604Z,64.88
2022-09-07T07:44:22.698Z,65.22
2022-09-07T07:47:09.843Z,65.11
2022-09-07T07:56:20.703Z,65.41
2022-09-07T07:59:10.674Z,65.59
2022-09-07T08:02:06.921Z,65.30
2022-09-07T08:04:53.779Z,65.02
2022-09-07T08:07:40.522Z,65.33
2022-09-07T08:10:28.913Z,65.38
2022-09-07T08:13:15.976Z,65.33
2022-09-07T08:16:02.927Z,65.42
2022-09-07T08:18:49.679Z,64.92
2022-09-07T08:21:36.304Z,65.22
2022-09-07T08:24:22.981Z,65.15
2022-09-07T08:27:09.666Z,65.28
2022-09-07T08:29:56.304Z,65.12
2022-09-07T08:32:43.214Z,65.29
2022-09-07T08:35:30.124Z,65.20
2022-09-07T08:38:20.880Z,65.13
2022-09-07T08:41:16.569Z,65.08
2022-09-07T08:44:13.284Z,65.26
2022-09-07T08:47:33.169Z,65.33
2022-09-07T08:50:25.894Z,64.95
2022-09-07T08:53:16.864Z,65.06
2022-09-07T08:56:33.631Z,64.93
2022-09-07T08:59:20.568Z,64.90
2022-09-07T09:02:32.580Z,64.91
2022-09-07T09:05:22.596Z,64.69
2022-09-07T09:08:12.360Z,64.59
2022-09-07T09:11:12.292Z,64.45
2022-09-07T09:14:04.778Z,64.50
2022-09-07T09:16:55.799Z,64.28
2022-09-07T09:19:42.421Z,64.24
2022-09-07T09:22:29.516Z,64.19
2022-09-07T09:25:20.700Z,64.18
2022-09-07T09:28:08.794Z,64.09
2022-09-07T09:30:55.490Z,64.18
2022-09-07T09:33:42.285Z,64.22
2022-09-07T09:36:34.306Z,64.03
2022-09-07T09:39:24.964Z,63.79
2022-09-07T09:42:11.566Z,63.79
2022-09-07T09:45:05.149Z,63.97
2022-09-07T09:47:52.560Z,63.77
2022-09-07T09:54:07.676Z,63.57
2022-09-07T09:56:54.369Z,63.69
2022-09-07T09:59:57.976Z,63.72
2022-09-07T10:06:07.294Z,63.64
2022-09-07T10:08:57.885Z,63.35
2022-09-07T10:14:51.989Z,62.69
2022-09-07T10:17:39.350Z,62.67
2022-09-07T10:20:36.205Z,62.40
2022-09-07T10:23:23.400Z,62.36
2022-09-07T10:26:19.779Z,62.22
2022-09-07T10:29:06.979Z,61.79
2022-09-07T10:32:12.626Z,61.79
2022-09-07T10:35:07.938Z,61.37
2022-09-07T10:38:03.899Z,61.53
2022-09-07T10:40:56.405Z,60.90
2022-09-07T10:43:43.625Z,60.56
2022-09-07T10:47:01.698Z,60.33
2022-09-07T10:53:39.432Z,59.85
2022-09-07T10:56:25.846Z,59.70
2022-09-07T10:59:21.738Z,59.34
2022-09-07T11:02:11.763Z,58.80
2022-09-07T11:05:20.358Z,58.70
2022-09-07T11:08:21.711Z,58.53
2022-09-07T11:12:00.363Z,58.07
2022-09-07T11:14:27.404Z,57.62
2022-09-07T11:17:15.696Z,57.50
2022-09-07T11:20:12.884Z,57.35
2022-09-07T11:22:59.570Z,56.76
2022-09-07T11:25:55.452Z,56.16
2022-09-07T11:32:09.772Z,55.17
2022-09-07T11:35:11.734Z,54.99
2022-09-07T11:38:00.262Z,54.72
2022-09-07T11:40:57.188Z,55.00
2022-09-07T11:43:45.420Z,54.69
2022-09-07T11:46:45.766Z,54.86
2022-09-07T11:49:32.535Z,54.78
2022-09-07T11:52:25.413Z,54.96
2022-09-07T11:55:23.920Z,54.31
2022-09-07T11:58:29.209Z,54.73
2022-09-07T12:01:23.455Z,54.26
2022-09-07T12:04:26.069Z,54.15
2022-09-07T12:07:15.818Z,54.30
2022-09-07T12:10:06.508Z,54.33
2022-09-07T12:12:59.936Z,54.41
2022-09-07T12:15:49.978Z,54.29
2022-09-07T12:18:43.923Z,54.11
2022-09-07T12:21:32.036Z,53.57
2022-09-07T12:24:37.516Z,53.55
2022-09-07T12:27:25.398Z,53.34
2022-09-07T12:30:11.990Z,53.26
2022-09-07T12:33:05.744Z,53.22
2022-09-07T12:35:54.469Z,52.96
2022-09-07T12:38:59.673Z,52.83
2022-09-07T12:42:31.748Z,52.56
2022-09-07T12:45:35.704Z,52.49
2022-09-07T12:48:26.672Z,52.36
2022-09-07T12:55:16.150Z,51.94
2022-09-07T12:58:19.412Z,51.79
2022-09-07T13:01:09.493Z,51.88
2022-09-07T13:04:02.401Z,51.47
2022-09-07T13:07:04.311Z,51.45
2022-09-07T13:09:57.510Z,51.26
2022-09-07T13:12:57.361Z,51.01
2022-09-07T13:15:49.043Z,51.33
2022-09-07T13:18:35.852Z,51.06
2022-09-07T13:21:38.864Z,51.19
2022-09-07T13:24:49.836Z,51.00
2022-09-07T13:27:55.411Z,51.01
2022-09-07T13:30:46.480Z,51.15
2022-09-07T13:33:36.273Z,50.99
2022-09-07T13:36:25.784Z,51.04
2022-09-07T13:39:13.250Z,50.93
2022-09-07T13:41:59.910Z,51.05
2022-09-07T13:44:59.961Z,51.23
2022-09-07T13:47:49.675Z,51.06
2022-09-07T13:50:36.260Z,51.17
2022-09-07T13:53:38.234Z,51.06
2022-09-07T13:56:34.121Z,51.33
2022-09-07T13:59:25.651Z,51.27
2022-09-07T14:02:20.218Z,51.24
2022-09-07T14:05:08.583Z,51.36
2022-09-07T14:07:55.245Z,51.08
2022-09-07T14:10:46.909Z,51.35
2022-09-07T14:13:33.541Z,48.61
2022-09-07T14:16:20.206Z,49.11
2022-09-07T14:19:15.592Z,48.49
2022-09-07T14:22:03.327Z,48.28
2022-09-07T14:24:49.933Z,47.79
2022-09-07T14:27:40.602Z,47.80
2022-09-07T14:30:31.962Z,47.53
2022-09-07T14:33:20.204Z,47.67
2022-09-07T14:36:29.567Z,47.27
2022-09-07T14:39:14.256Z,46.27
2022-09-07T14:42:01.683Z,46.91
2022-09-07T14:44:49.416Z,46.93
2022-09-07T14:47:36.199Z,47.36
2022-09-07T14:50:23.695Z,47.31
2022-09-07T14:56:19.530Z,47.91
2022-09-07T14:59:25.124Z,47.82
2022-09-07T15:02:23.354Z,48.04
2022-09-07T15:05:18.173Z,48.11
2022-09-07T15:08:05.781Z,48.12
2022-09-07T15:14:11.382Z,47.94
2022-09-07T15:20:26.068Z,48.19
2022-09-07T15:23:19.566Z,48.21
2022-09-07T15:26:06.917Z,48.20
2022-09-07T15:29:11.064Z,48.40
2022-09-07T15:32:03.900Z,48.29
2022-09-07T15:34:51.382Z,48.17
2022-09-07T15:41:18.164Z,46.54
2022-09-07T15:43:56.942Z,45.53
2022-09-07T15:47:43.214Z,45.05
2022-09-07T15:49:51.807Z,44.50
2022-09-07T15:52:40.530Z,44.49
2022-09-07T15:55:27.302Z,44.74
2022-09-07T15:58:14.379Z,43.94
2022-09-07T16:04:11.575Z,44.04
2022-09-07T16:07:01.499Z,44.39
2022-09-07T16:09:48.900Z,44.32
2022-09-07T16:15:45.209Z,43.57
2022-09-07T16:18:32.285Z,43.46
2022-09-07T16:21:19.338Z,43.80
2022-09-07T16:24:06.536Z,44.04
2022-09-07T16:26:54.373Z,44.16
2022-09-07T16:29:44.067Z,44.10
2022-09-07T16:32:46.221Z,44.21
2022-09-07T16:36:01.300Z,44.38
2022-09-07T16:38:48.755Z,44.54
2022-09-07T16:41:38.143Z,44.78
2022-09-07T16:44:27.439Z,44.88
2022-09-07T16:47:20.532Z,44.93
2022-09-07T16:50:07.958Z,44.85
2022-09-07T16:52:57.898Z,45.18
2022-09-07T16:56:01.111Z,45.07
2022-09-07T17:03:12.582Z,45.10
2022-09-07T17:07:31.537Z,45.16
2022-09-07T17:12:44.745Z,45.51
2022-09-07T17:15:48.752Z,45.50
2022-09-07T17:22:00.768Z,45.68
2022-09-07T17:24:50.787Z,45.80
2022-09-07T17:27:37.936Z,45.74
2022-09-07T17:30:33.286Z,46.06
2022-09-07T17:33:34.326Z,46.48
2022-09-07T17:36:24.018Z,46.41
2022-09-07T17:39:22.319Z,46.37
2022-09-07T17:42:09.877Z,46.28
2022-09-07T17:44:58.658Z,46.20
2022-09-07T17:47:45.995Z,46.55
2022-09-07T17:50:36.130Z,46.56
2022-09-07T17:53:23.013Z,46.71
2022-09-07T17:57:19.908Z,46.71
2022-09-07T18:00:14.518Z,46.40
2022-09-07T18:06:59.052Z,46.67
2022-09-07T19:08:49.747Z,48.68
2022-09-07T19:11:44.730Z,48.99
